• Join FlightAware (Why Join?)
  • Login
  • US Flag 
01:17AM EDT


 

Airport Tracker/Info


-or-


 

Live Flight TrackerFlight Track Log ✈ UAL4180 ✈ 12-Apr-2013 ✈ KORD - KBNA

Flight Track Log - Related Links

Times and Time Zones

All times are in EDT time to prevent confusion due to time zone crossing. See the UAL4180 flight status page for this flight to view local times or setup timezone preferences in your user account.

Time Position Orientation Groundspeed Altitude Reporting Facility
EDT Latitude Longitude Course Direction KTS MPH feet Rate Location/Type
08:56AM 41.9000 -87.9000 175° South 196 226 3,500  Level Chicago TRACON
08:57AM 41.8111 -87.8906 175° South 226 260 6,200 1,980 Climbing Chicago Center
08:58AM 41.7383 -87.8878 178° South 259 298 8,500 2,100 Climbing Chicago Center
08:59AM 41.6597 -87.8858 179° South 281 323 10,600 2,220 Climbing Chicago Center
09:00AM 41.5833 -87.8839 179° South 275 316 13,100 2,220 Climbing Chicago Center
09:01AM 41.5092 -87.8808 178° South 267 307 15,200 2,040 Climbing Chicago Center
09:03AM 41.4339 -87.8786 179° South 267 307 17,300 1,980 Climbing Chicago Center
09:04AM 41.3600 -87.8831 183° South 263 303 19,400 1,500 Climbing Chicago Center
09:05AM 41.2808 -87.8911 184° South 281 323 20,400 1,020 Climbing Chicago Center
09:06AM 41.1742 -87.8917 180° South 315 362 21,600 1,020 Climbing Chicago Center
09:07AM 41.0783 -87.8881 178° South 339 390 22,600 960 Climbing Chicago Center
09:08AM 40.9789 -87.8853 179° South 355 409 23,600 960 Climbing Chicago Center
09:09AM 40.8775 -87.8819 179° South 363 418 24,600 900 Climbing Chicago Center
09:10AM 40.7750 -87.8778 178° South 369 425 25,500 900 Climbing Chicago Center
09:11AM 40.6719 -87.8758 179° South 369 425 26,500 960 Climbing Chicago Center
09:12AM 40.5683 -87.8714 178° South 374 430 27,500 900 Climbing Chicago Center
09:13AM 40.4653 -87.8694 179° South 372 428 28,400 780 Climbing Chicago Center
09:14AM 40.3603 -87.8639 178° South 372 428 29,000 300 Climbing Indianapolis Center
09:15AM 40.2508 -87.8625 179° South 381 438 29,000  Level Indianapolis Center
09:16AM 40.1364 -87.8547 177° South 396 456 29,000  Level Indianapolis Center
09:17AM 40.0192 -87.8394 174° South 411 473 29,000  Level Indianapolis Center
09:18AM 39.9006 -87.8131 170° South 423 487 29,000  Level Indianapolis Center
09:19AM 39.7828 -87.7861 170° South 427 491 29,000  Level Indianapolis Center
09:20AM 39.6644 -87.7597 170° South 429 494 29,000  Level Indianapolis Center
09:21AM 39.5219 -87.7261 170° South 431 496 29,000  Level Indianapolis Center
09:22AM 39.4022 -87.7011 171° South 434 499 29,000  Level Indianapolis Center
09:23AM 39.2833 -87.6742 170° South 433 498 29,000  Level Indianapolis Center
09:24AM 39.1653 -87.6472 170° South 430 495 29,000  Level Indianapolis Center
09:25AM 39.0475 -87.6206 170° South 429 494 29,000  Level Indianapolis Center
09:26AM 38.9292 -87.5942 170° South 430 495 29,000  Level Indianapolis Center
09:27AM 38.8108 -87.5689 171° South 431 496 29,000  Level Indianapolis Center
09:28AM 38.6689 -87.5372 170° South 431 496 29,000  Level Indianapolis Center
09:29AM 38.5531 -87.5128 171° South 425 489 29,000  Level Indianapolis Center
09:30AM 38.4372 -87.4861 170° South 424 488 29,000  Level Indianapolis Center
09:31AM 38.3222 -87.4625 171° South 422 486 29,000  Level Indianapolis Center
09:32AM 38.2083 -87.4392 171° South 419 482 29,000  Level Indianapolis Center
09:33AM 38.0717 -87.4083 170° South 418 481 29,000  Level Indianapolis Center
09:34AM 37.9561 -87.3833 170° South 421 484 29,000  Level Indianapolis Center
09:35AM 37.8425 -87.3583 170° South 418 481 29,000  Level Indianapolis Center
09:36AM 37.7192 -87.3339 171° South 418 481 29,000 -720 Level Indianapolis Center
09:37AM 37.6028 -87.3100 171° South 419 482 27,600 -1,920 Descending Indianapolis Center
09:38AM 37.5442 -87.2969 170° South 421 484 26,200 -2,940 Descending Memphis Center
09:38AM 37.5192 -87.2953 177° South 415 478 25,500 -3,120 Descending Memphis Center
09:39AM 37.4269 -87.2728 169° South 421 484 23,100 -2,880 Descending Memphis Center
09:39AM 37.3997 -87.2711 177° South 417 480 22,600 -1,440 Descending Memphis Center
09:40AM 37.3178 -87.2456 166° South 416 479 21,700 -1,200 Descending Memphis Center
09:40AM 37.2864 -87.2417 174° South 397 457 21,400 -1,200 Descending Memphis Center
09:41AM 37.2086 -87.2133 164° South 410 472 20,500 -1,200 Descending Memphis Center
09:41AM 37.1772 -87.2069 171° South 412 474 20,200 -1,140 Descending Memphis Center
09:42AM 37.0994 -87.1814 165° South 410 472 19,400 -1,140 Descending Memphis Center
09:42AM 37.0661 -87.1747 171° South 402 463 19,100 -900 Descending Memphis Center
09:43AM 37.0031 -87.1542 165° South 403 464 18,500 -1,140 Descending Memphis Center
09:43AM 36.9611 -87.1428 168° South 394 453 18,000 -1,200 Descending Memphis Center
09:44AM 36.8958 -87.1219 166° South 397 457 17,300 -1,020 Descending Memphis Center
09:45AM 36.7908 -87.0847 164° South 392 451 16,300 -1,140 Descending Memphis Center
09:46AM 36.6933 -87.0242 154° Southeast 398 458 15,100 -1,980 Descending Memphis Center
09:47AM 36.6000 -86.9658 153° Southeast 379 436 12,400 -2,100 Descending Memphis Center
09:48AM 36.5172 -86.9153 154° Southeast 351 404 11,000 -1,440 Descending Memphis Center
09:49AM 36.4367 -86.8669 154° Southeast 313 360 9,600 -1,680 Descending Memphis Center
09:50AM 36.3667 -86.8236 154° Southeast 286 329 7,700 -1,740 Descending Memphis Center
09:51AM 36.2967 -86.7828 155° Southeast 286 329 6,200 -900 Descending Memphis Center
09:52AM 36.2353 -86.7522 158° South 278 320 6,000 -600 Descending Memphis Center
09:53AM 36.1756 -86.7728 196° South 232 267 5,100 -660 Descending Memphis Center
09:54AM 36.1136 -86.7961 197° South 232 267 4,700 -600 Descending Memphis Center
09:55AM 36.0569 -86.7806 167° South 202 232 3,900 -960 Descending Memphis Center
09:56AM 36.0328 -86.7353 123° Southeast 147 169 2,800 -1,200 Descending Memphis Center
09:57AM 36.0631 -86.7031 41° Northeast 111 128 1,600 -1,080 Descending Memphis Center
09:58AM 36.1000 -86.6886 18° North 112 129 700 -480 Descending Memphis Center
09:59AM 36.1225 -86.6672 38° Northeast 112 129 700  Level Memphis Center
10:01AM 36.1167 -86.6667 North  Level FlightAware Approximate
10:08AM 36.1245 -86.6782 North  Level Estimated
10:09AM 36.1245 -86.6782 North  Level Estimated
10:10AM 36.1245 -86.6782 North  Level Estimated
10:11AM 36.1245 -86.6782 North  Level Estimated
10:12AM 36.1245 -86.6782 North  Level Estimated
10:13AM 36.1245 -86.6782 North  Level Estimated
10:14AM 36.1245 -86.6782 North  Level Estimated
10:15AM 36.1245 -86.6782 North  Level Estimated